Time;durP1;ratioP1;P1;durP2;ratioP2;P2;SDS_P1;SDS_P2;PMS_P1;PMS_P2;Temp;Humidity;BMP_temperature;BMP_pressure;BME280_temperature;BME280_humidity;BME280_pressure;Samples;Min_cycle;Max_cycle;Signal;HPM_P1;HPM_P2
2021/04/26 00:00:08;;;;;;;8.90;4.57;;;5.10;61.30;;;;;;5200660;28;20073;-67
2021/04/26 00:02:43;;;;;;;9.38;4.60;;;5.10;62.20;;;;;;5200861;28;20072;-67
2021/04/26 00:05:15;;;;;;;9.18;4.85;;;5.10;61.90;;;;;;5202335;28;20045;-67
2021/04/26 00:07:47;;;;;;;11.20;4.68;;;5.10;62.10;;;;;;5232613;28;20061;-69
2021/04/26 00:10:18;;;;;;;7.75;4.70;;;5.10;61.80;;;;;;5199304;28;20387;-67
2021/04/26 00:12:50;;;;;;;9.45;4.18;;;5.10;62.50;;;;;;5216540;28;20854;-68
2021/04/26 00:15:43;;;;;;;11.07;4.80;;;5.10;61.80;;;;;;5227896;28;20051;-68
2021/04/26 00:18:14;;;;;;;9.00;4.53;;;5.10;61.30;;;;;;5188734;28;20111;-67
2021/04/26 00:20:46;;;;;;;8.23;4.60;;;5.00;62.40;;;;;;5199978;28;20045;-67
2021/04/26 00:23:17;;;;;;;7.45;4.53;;;5.00;62.30;;;;;;5202990;28;20038;-67
2021/04/26 00:25:49;;;;;;;9.60;4.95;;;5.00;62.00;;;;;;5204866;28;20106;-68
2021/04/26 00:28:20;;;;;;;8.20;4.15;;;5.10;61.60;;;;;;5234566;28;20096;-67
2021/04/26 00:30:52;;;;;;;8.30;4.00;;;5.20;60.90;;;;;;5201779;28;20038;-67
2021/04/26 00:33:23;;;;;;;6.55;4.55;;;5.20;61.40;;;;;;5199318;28;20122;-67
2021/04/26 00:35:55;;;;;;;7.75;3.95;;;5.30;61.40;;;;;;5199448;28;20460;-67
2021/04/26 00:38:26;;;;;;;7.28;4.13;;;5.30;61.40;;;;;;5202047;28;20414;-67
2021/04/26 00:40:58;;;;;;;12.50;4.70;;;5.20;62.00;;;;;;5201316;28;20041;-67
2021/04/26 00:43:29;;;;;;;9.30;5.53;;;5.20;61.20;;;;;;5203591;28;20754;-67
2021/04/26 00:46:01;;;;;;;7.55;4.47;;;5.10;62.00;;;;;;5201190;28;20045;-67
2021/04/26 00:48:32;;;;;;;8.90;4.65;;;5.00;62.60;;;;;;5201564;28;20506;-67
2021/04/26 00:51:05;;;;;;;8.57;4.65;;;5.00;62.90;;;;;;5201233;28;20834;-66
2021/04/26 00:53:37;;;;;;;8.43;4.82;;;5.00;62.60;;;;;;5205694;28;20052;-67
2021/04/26 00:56:09;;;;;;;8.38;4.90;;;4.90;62.60;;;;;;5202342;28;20068;-66
2021/04/26 00:58:41;;;;;;;9.10;4.35;;;4.90;62.40;;;;;;5195091;28;20127;-67
2021/04/26 01:01:13;;;;;;;8.18;5.10;;;5.00;62.30;;;;;;5198028;28;20045;-67
2021/04/26 01:03:45;;;;;;;8.48;4.72;;;5.00;62.00;;;;;;5201443;28;20042;-66
2021/04/26 01:06:16;;;;;;;7.80;4.80;;;5.00;62.00;;;;;;5199963;28;20042;-66
2021/04/26 01:08:48;;;;;;;8.25;4.97;;;5.10;62.30;;;;;;5196340;28;20056;-67
2021/04/26 01:11:56;;;;;;;7.30;4.70;;;5.10;62.20;;;;;;5197565;28;20041;-66
2021/04/26 01:14:41;;;;;;;9.05;5.43;;;4.90;63.10;;;;;;5196265;28;20049;-66
2021/04/26 01:17:21;;;;;;;7.22;4.75;;;5.00;63.30;;;;;;5203853;28;20123;-66
2021/04/26 01:20:32;;;;;;;7.68;4.50;;;4.90;63.30;;;;;;5204956;28;20371;-66
2021/04/26 01:23:31;;;;;;;7.18;4.88;;;4.80;63.70;;;;;;5238680;28;20152;-66
2021/04/26 01:26:05;;;;;;;7.75;5.05;;;4.70;64.60;;;;;;5206316;28;20123;-66
2021/04/26 01:29:13;;;;;;;9.07;4.63;;;4.50;65.80;;;;;;5220556;28;20503;-66
2021/04/26 01:32:02;;;;;;;7.70;5.30;;;4.40;66.20;;;;;;5235920;28;20483;-67
2021/04/26 01:34:35;;;;;;;9.65;5.40;;;4.40;66.60;;;;;;5234815;28;20471;-66
2021/04/26 01:37:13;;;;;;;6.90;4.75;;;4.50;66.10;;;;;;5202369;28;20033;-66
2021/04/26 01:39:48;;;;;;;9.18;4.90;;;4.60;65.50;;;;;;5204437;28;20046;-67
2021/04/26 01:42:21;;;;;;;6.97;4.72;;;4.70;64.80;;;;;;5204511;28;20120;-67
2021/04/26 01:44:54;;;;;;;8.02;4.50;;;4.80;64.10;;;;;;5206621;28;20140;-67
2021/04/26 01:47:27;;;;;;;8.77;5.25;;;4.80;64.30;;;;;;5203867;28;20041;-67
2021/04/26 01:50:01;;;;;;;7.88;4.55;;;4.80;64.10;;;;;;5185267;28;20083;-67
2021/04/26 01:52:35;;;;;;;8.55;4.75;;;4.80;63.50;;;;;;5200983;28;20045;-67
2021/04/26 01:55:10;;;;;;;7.85;4.78;;;4.90;63.60;;;;;;5190308;28;20052;-67
2021/04/26 01:57:42;;;;;;;8.50;5.30;;;4.90;63.40;;;;;;5207020;28;20136;-67
2021/04/26 02:00:29;;;;;;;7.50;4.60;;;5.00;63.20;;;;;;5234703;28;20555;-68
2021/04/26 02:03:14;;;;;;;7.05;4.70;;;5.00;63.60;;;;;;5205127;28;20112;-66
2021/04/26 02:05:55;;;;;;;9.32;5.40;;;5.00;63.80;;;;;;5235225;28;20049;-67
2021/04/26 02:08:29;;;;;;;8.88;4.97;;;4.90;64.20;;;;;;5235079;28;20049;-67
2021/04/26 02:11:02;;;;;;;8.18;4.70;;;4.80;64.90;;;;;;5222425;28;20065;-67
2021/04/26 02:13:33;;;;;;;7.88;5.10;;;4.70;65.30;;;;;;5203628;28;20042;-67
2021/04/26 02:16:05;;;;;;;8.07;4.72;;;4.60;65.40;;;;;;5235112;28;20041;-67
2021/04/26 02:18:37;;;;;;;7.25;4.78;;;4.60;65.40;;;;;;5218894;28;20497;-66
2021/04/26 02:21:09;;;;;;;8.23;4.40;;;4.60;65.50;;;;;;5204354;28;20057;-66
2021/04/26 02:23:40;;;;;;;6.90;5.10;;;4.60;65.50;;;;;;5202995;28;20498;-66
2021/04/26 02:26:12;;;;;;;8.15;4.75;;;4.50;66.10;;;;;;5236517;28;20150;-67
2021/04/26 02:28:48;;;;;;;8.85;4.82;;;4.50;66.60;;;;;;5237284;28;20045;-66
2021/04/26 02:31:25;;;;;;;8.18;4.55;;;4.40;67.00;;;;;;5218246;28;20434;-65
2021/04/26 02:34:06;;;;;;;7.13;4.90;;;4.20;67.70;;;;;;5202643;28;20052;-65
2021/04/26 02:36:50;;;;;;;8.48;5.57;;;4.20;67.80;;;;;;5205386;28;20044;-66
2021/04/26 02:39:24;;;;;;;7.80;4.82;;;4.10;68.30;;;;;;5201802;28;20048;-65
2021/04/26 02:42:01;;;;;;;9.40;4.78;;;4.20;67.70;;;;;;5203274;28;20065;-66
2021/04/26 02:44:37;;;;;;;7.15;4.57;;;4.30;67.20;;;;;;5201413;28;20476;-65
2021/04/26 02:47:19;;;;;;;8.13;4.70;;;4.40;66.50;;;;;;5217552;28;20087;-65
2021/04/26 02:50:09;;;;;;;8.82;4.60;;;4.50;66.40;;;;;;5217431;28;20045;-65
2021/04/26 02:52:51;;;;;;;9.70;4.75;;;4.50;66.60;;;;;;5186504;28;20132;-66
2021/04/26 02:55:25;;;;;;;10.82;5.15;;;4.50;66.10;;;;;;5219186;28;20050;-66
2021/04/26 02:57:57;;;;;;;8.95;5.47;;;4.60;67.00;;;;;;5207257;28;20555;-67
2021/04/26 03:00:29;;;;;;;10.73;5.53;;;4.70;65.70;;;;;;5204898;28;20140;-67
2021/04/26 03:03:21;;;;;;;10.38;5.65;;;4.70;66.80;;;;;;5180222;28;20168;-68
2021/04/26 03:05:55;;;;;;;8.40;5.25;;;4.70;65.80;;;;;;5202243;28;20041;-67
2021/04/26 03:08:29;;;;;;;9.93;5.63;;;4.60;66.50;;;;;;5236581;28;20076;-68
2021/04/26 03:11:06;;;;;;;8.40;5.57;;;4.40;67.70;;;;;;5202071;28;20419;-68
2021/04/26 03:13:40;;;;;;;8.65;4.75;;;4.30;68.50;;;;;;5233685;28;20053;-67
2021/04/26 03:16:12;;;;;;;8.50;5.20;;;4.30;68.70;;;;;;5201064;28;20064;-68
2021/04/26 03:18:44;;;;;;;9.05;5.47;;;4.40;67.70;;;;;;5207485;28;20470;-67
2021/04/26 03:21:17;;;;;;;10.05;5.43;;;4.50;67.80;;;;;;5217589;28;20037;-69
2021/04/26 03:23:55;;;;;;;8.88;5.75;;;4.60;67.10;;;;;;5201912;28;20045;-67
2021/04/26 03:26:29;;;;;;;9.00;5.43;;;4.60;66.30;;;;;;5203514;28;20041;-67
2021/04/26 03:29:02;;;;;;;8.85;5.40;;;4.60;66.70;;;;;;5207485;28;20545;-67
2021/04/26 03:31:34;;;;;;;9.18;5.93;;;4.50;67.70;;;;;;5202402;28;20061;-67
2021/04/26 03:34:17;;;;;;;11.02;6.50;;;4.40;68.20;;;;;;5205042;28;20045;-67
2021/04/26 03:36:50;;;;;;;8.80;5.70;;;4.30;69.50;;;;;;5204393;28;20416;-67
2021/04/26 03:39:22;;;;;;;10.32;5.50;;;4.40;68.60;;;;;;5202137;28;20049;-67
2021/04/26 03:41:58;;;;;;;11.65;6.03;;;4.40;68.70;;;;;;5201587;28;20683;-67
2021/04/26 03:44:32;;;;;;;10.85;5.55;;;4.50;68.30;;;;;;5218624;28;20057;-70
2021/04/26 03:47:26;;;;;;;8.65;5.30;;;4.50;67.60;;;;;;5208212;28;20045;-67
2021/04/26 03:50:18;;;;;;;11.57;5.45;;;4.60;67.70;;;;;;5229275;28;20592;-67
2021/04/26 03:53:07;;;;;;;8.73;5.50;;;4.60;67.70;;;;;;5205898;28;20052;-66
2021/04/26 03:56:05;;;;;;;9.60;5.43;;;4.70;66.80;;;;;;5205297;28;20044;-67
2021/04/26 03:58:36;;;;;;;9.70;5.35;;;4.70;66.20;;;;;;5233402;28;20038;-67
2021/04/26 04:01:09;;;;;;;9.65;5.28;;;4.70;66.80;;;;;;5201301;28;20056;-66
2021/04/26 04:03:41;;;;;;;7.15;4.68;;;4.70;67.00;;;;;;5203411;28;20041;-67
2021/04/26 04:06:14;;;;;;;11.70;5.50;;;4.70;67.00;;;;;;5201942;28;20084;-66
2021/04/26 04:09:06;;;;;;;8.93;4.70;;;4.70;66.50;;;;;;5203556;28;20044;-67
2021/04/26 04:12:00;;;;;;;10.13;5.72;;;4.80;67.20;;;;;;5200803;28;20152;-67
2021/04/26 04:14:39;;;;;;;7.82;5.35;;;4.70;67.30;;;;;;5202654;28;20053;-68
2021/04/26 04:17:14;;;;;;;9.07;5.13;;;4.70;67.40;;;;;;5201771;28;20511;-68
2021/04/26 04:19:45;;;;;;;8.32;5.25;;;4.60;67.40;;;;;;5202605;28;20137;-67
2021/04/26 04:22:21;;;;;;;8.77;5.65;;;4.60;67.50;;;;;;5202440;28;20037;-66
2021/04/26 04:24:59;;;;;;;8.43;5.35;;;4.70;67.30;;;;;;5203962;28;20575;-66
2021/04/26 04:27:32;;;;;;;9.65;5.10;;;4.70;67.60;;;;;;5203157;28;20106;-66
2021/04/26 04:30:11;;;;;;;8.63;6.00;;;4.60;67.90;;;;;;5210565;28;20732;-66
2021/04/26 04:32:58;;;;;;;8.25;5.35;;;4.60;68.20;;;;;;5204231;28;20052;-66
2021/04/26 04:35:48;;;;;;;9.68;6.53;;;4.60;68.60;;;;;;5203885;28;20123;-67
2021/04/26 04:38:26;;;;;;;9.82;5.80;;;4.60;68.00;;;;;;5235687;28;20057;-66
2021/04/26 04:41:15;;;;;;;12.50;6.50;;;4.70;68.40;;;;;;5202796;28;20049;-66
2021/04/26 04:43:47;;;;;;;10.05;6.75;;;4.70;68.30;;;;;;5202800;28;20049;-67
2021/04/26 04:46:19;;;;;;;10.82;6.25;;;4.80;68.10;;;;;;5217196;28;20423;-67
2021/04/26 04:48:58;;;;;;;11.23;6.28;;;4.80;67.60;;;;;;5182904;28;20487;-66
2021/04/26 04:51:31;;;;;;;11.13;6.05;;;4.90;67.30;;;;;;5198310;28;20046;-66
2021/04/26 04:54:08;;;;;;;12.55;5.85;;;4.90;66.60;;;;;;5202530;28;20124;-67
2021/04/26 04:56:59;;;;;;;9.50;5.80;;;5.10;66.70;;;;;;5202653;28;20423;-67
2021/04/26 04:59:34;;;;;;;12.50;5.90;;;5.10;66.40;;;;;;5187596;28;20061;-67
2021/04/26 05:02:19;;;;;;;9.68;5.88;;;5.20;66.30;;;;;;5235486;28;20049;-67
2021/04/26 05:05:10;;;;;;;11.70;6.05;;;5.30;66.10;;;;;;5203245;28;20422;-66
2021/04/26 05:08:01;;;;;;;11.10;6.45;;;5.40;65.80;;;;;;5203753;28;20045;-67
2021/04/26 05:10:50;;;;;;;11.85;6.60;;;5.40;66.00;;;;;;5201906;28;20558;-67
2021/04/26 05:13:42;;;;;;;10.73;6.25;;;5.60;65.80;;;;;;5207035;28;20048;-63
2021/04/26 05:16:14;;;;;;;11.27;6.65;;;5.80;65.00;;;;;;5235281;28;20052;-63
2021/04/26 05:18:45;;;;;;;9.23;6.00;;;6.00;64.60;;;;;;5205960;28;20041;-63
2021/04/26 05:21:17;;;;;;;11.32;5.72;;;6.10;63.90;;;;;;5206917;28;20036;-63
2021/04/26 05:23:48;;;;;;;10.18;5.90;;;6.20;63.10;;;;;;5219279;28;20075;-63
2021/04/26 05:26:21;;;;;;;10.88;6.47;;;6.30;62.80;;;;;;5236808;28;20478;-63
2021/04/26 05:28:53;;;;;;;12.23;5.97;;;6.30;62.30;;;;;;5236320;28;20049;-63
2021/04/26 05:31:25;;;;;;;9.88;6.28;;;6.40;61.50;;;;;;5202755;28;20475;-64
2021/04/26 05:33:57;;;;;;;10.07;5.57;;;6.40;60.80;;;;;;5201976;28;20112;-62
2021/04/26 05:36:47;;;;;;;10.25;6.13;;;6.50;60.70;;;;;;5209222;28;20085;-64
2021/04/26 05:39:19;;;;;;;9.85;6.28;;;6.50;60.90;;;;;;5201688;28;20103;-64
2021/04/26 05:41:51;;;;;;;10.07;5.30;;;6.50;60.30;;;;;;5200034;28;20511;-65
2021/04/26 05:44:22;;;;;;;13.40;5.53;;;6.50;58.20;;;;;;5202518;28;20049;-64
2021/04/26 05:47:09;;;;;;;9.52;5.72;;;6.60;57.00;;;;;;5191617;28;20096;-64
2021/04/26 05:49:41;;;;;;;10.40;5.60;;;6.60;55.50;;;;;;5207430;28;20052;-65
2021/04/26 05:52:12;;;;;;;10.88;5.50;;;6.70;54.60;;;;;;5205388;28;20092;-64
2021/04/26 05:54:44;;;;;;;19.60;6.03;;;6.70;55.90;;;;;;5204150;28;20125;-64
2021/04/26 05:57:15;;;;;;;12.02;5.35;;;6.80;55.00;;;;;;5203961;28;20123;-63
2021/04/26 05:59:47;;;;;;;10.77;5.22;;;6.90;54.30;;;;;;5205437;28;20187;-65
2021/04/26 06:02:18;;;;;;;12.35;5.85;;;6.90;53.80;;;;;;5203534;28;20198;-65
2021/04/26 06:04:50;;;;;;;9.68;5.28;;;6.90;53.30;;;;;;5201892;28;20055;-66
2021/04/26 06:07:21;;;;;;;9.10;5.10;;;6.90;54.60;;;;;;5205414;28;20069;-66
2021/04/26 06:09:52;;;;;;;11.73;5.80;;;7.10;54.50;;;;;;5208657;28;20059;-65
2021/04/26 06:12:24;;;;;;;12.18;5.15;;;7.30;53.30;;;;;;5206394;28;20037;-64
2021/04/26 06:14:55;;;;;;;9.55;5.43;;;7.30;53.00;;;;;;5206342;28;20048;-64
2021/04/26 06:17:27;;;;;;;9.55;5.25;;;7.50;53.50;;;;;;5204872;28;20497;-63
2021/04/26 06:19:58;;;;;;;8.13;5.53;;;7.50;52.80;;;;;;5202478;28;20073;-64
2021/04/26 06:22:30;;;;;;;8.32;5.53;;;7.60;51.60;;;;;;5203276;28;20077;-65
2021/04/26 06:25:02;;;;;;;13.50;5.70;;;7.60;52.40;;;;;;5204437;28;20053;-64
2021/04/26 06:27:33;;;;;;;10.85;5.90;;;7.70;53.30;;;;;;5203160;28;20510;-64
2021/04/26 06:30:05;;;;;;;9.98;5.55;;;7.80;52.60;;;;;;5203253;28;20293;-64
2021/04/26 06:32:36;;;;;;;12.15;6.43;;;7.80;53.00;;;;;;5202186;28;20049;-64
2021/04/26 06:35:09;;;;;;;10.48;5.60;;;7.90;52.70;;;;;;5202411;28;20787;-64
2021/04/26 06:37:42;;;;;;;11.98;5.43;;;8.00;52.30;;;;;;5204852;28;20117;-63
2021/04/26 06:40:14;;;;;;;11.90;5.47;;;8.20;52.70;;;;;;5204789;28;20053;-64
2021/04/26 06:42:46;;;;;;;8.68;5.22;;;8.30;52.40;;;;;;5221880;28;20083;-64
2021/04/26 06:45:21;;;;;;;9.30;5.82;;;8.50;52.40;;;;;;5204357;28;20470;-64
2021/04/26 06:47:52;;;;;;;9.13;4.88;;;8.60;52.30;;;;;;5204299;28;20095;-64
2021/04/26 06:50:24;;;;;;;9.50;6.05;;;8.60;50.70;;;;;;5201829;28;20045;-64
2021/04/26 06:52:56;;;;;;;20.67;11.48;;;8.60;50.40;;;;;;5206432;28;20045;-64
2021/04/26 06:55:28;;;;;;;26.25;12.82;;;8.50;50.10;;;;;;5205414;28;20053;-64
2021/04/26 06:57:59;;;;;;;21.23;10.13;;;8.50;50.90;;;;;;5206541;28;20123;-64
2021/04/26 07:00:31;;;;;;;10.82;6.25;;;8.60;50.60;;;;;;5203573;28;20515;-64
2021/04/26 07:03:03;;;;;;;9.98;5.22;;;8.70;51.30;;;;;;5203283;28;20108;-63
2021/04/26 07:05:34;;;;;;;10.88;5.78;;;8.70;49.30;;;;;;5203594;28;20107;-64
2021/04/26 07:08:06;;;;;;;11.57;5.97;;;8.70;49.50;;;;;;5205106;28;20092;-64
2021/04/26 07:10:37;;;;;;;7.63;5.07;;;8.80;49.70;;;;;;5203026;28;20057;-64
2021/04/26 07:13:09;;;;;;;8.13;5.15;;;8.80;49.80;;;;;;5202981;28;20119;-64
2021/04/26 07:15:40;;;;;;;8.63;5.70;;;8.80;49.40;;;;;;5202443;28;20061;-64
2021/04/26 07:18:12;;;;;;;9.13;5.30;;;8.90;50.30;;;;;;5202798;28;20053;-65
2021/04/26 07:20:43;;;;;;;8.82;5.10;;;9.00;49.70;;;;;;5202503;28;20160;-64
2021/04/26 07:23:17;;;;;;;10.25;5.70;;;9.00;50.20;;;;;;5201805;28;20803;-64
2021/04/26 07:25:49;;;;;;;12.90;6.10;;;9.10;50.20;;;;;;5205943;28;20122;-64
2021/04/26 07:28:20;;;;;;;13.65;5.82;;;9.20;49.20;;;;;;5202007;28;20086;-65
2021/04/26 07:30:51;;;;;;;10.77;5.50;;;9.20;49.10;;;;;;5202753;28;20045;-64
2021/04/26 07:33:23;;;;;;;10.27;5.65;;;9.30;49.80;;;;;;5204078;28;20049;-64
2021/04/26 07:35:54;;;;;;;12.75;6.00;;;9.40;49.10;;;;;;5202373;28;20037;-64
2021/04/26 07:38:26;;;;;;;8.55;5.60;;;9.40;48.20;;;;;;5201391;28;20045;-64
2021/04/26 07:40:57;;;;;;;9.77;6.30;;;9.50;48.40;;;;;;5201695;28;20686;-64
2021/04/26 07:43:29;;;;;;;8.73;5.30;;;9.50;49.40;;;;;;5204019;28;20037;-65
2021/04/26 07:46:00;;;;;;;9.05;5.63;;;9.70;49.50;;;;;;5200832;28;20501;-64
2021/04/26 07:48:32;;;;;;;12.10;5.70;;;9.70;49.50;;;;;;5199790;28;20439;-64
2021/04/26 07:51:04;;;;;;;10.73;5.90;;;9.80;47.50;;;;;;5201227;28;20091;-64
2021/04/26 07:53:36;;;;;;;9.52;5.97;;;9.90;48.60;;;;;;5200797;28;20044;-64
2021/04/26 07:56:07;;;;;;;10.93;5.55;;;10.00;47.90;;;;;;5198267;28;20040;-65
2021/04/26 07:58:39;;;;;;;10.50;5.68;;;10.00;47.10;;;;;;5203017;28;20057;-64
2021/04/26 08:01:10;;;;;;;9.10;5.95;;;10.10;47.90;;;;;;5201472;28;20049;-64
2021/04/26 08:03:42;;;;;;;12.23;5.57;;;10.00;46.70;;;;;;5198727;28;20457;-63
2021/04/26 08:06:13;;;;;;;8.75;5.60;;;10.10;47.90;;;;;;5199138;28;20038;-64
2021/04/26 08:08:45;;;;;;;11.20;6.05;;;10.20;48.60;;;;;;5199429;28;20045;-63
2021/04/26 08:11:16;;;;;;;9.40;5.80;;;10.20;45.40;;;;;;5202998;28;20555;-64
2021/04/26 08:13:48;;;;;;;10.27;6.07;;;10.20;47.30;;;;;;5200547;28;20103;-64
2021/04/26 08:16:20;;;;;;;11.65;5.78;;;10.40;47.90;;;;;;5201517;28;20417;-64
2021/04/26 08:18:56;;;;;;;10.52;5.60;;;10.50;45.20;;;;;;5199679;28;20045;-64
2021/04/26 08:21:28;;;;;;;10.65;5.30;;;10.60;45.00;;;;;;5229591;28;20049;-64
2021/04/26 08:23:59;;;;;;;11.52;5.85;;;10.60;46.30;;;;;;5199852;28;20060;-63
2021/04/26 08:26:31;;;;;;;9.40;5.63;;;10.70;45.80;;;;;;5200446;28;20053;-64
2021/04/26 08:29:02;;;;;;;10.38;6.43;;;10.70;45.50;;;;;;5200453;28;20104;-63
2021/04/26 08:31:34;;;;;;;8.57;5.93;;;10.70;45.70;;;;;;5197848;28;20045;-63
2021/04/26 08:34:06;;;;;;;9.13;6.13;;;10.80;44.90;;;;;;5201002;28;20037;-64
2021/04/26 08:36:39;;;;;;;9.30;5.60;;;10.70;45.70;;;;;;5197962;28;20056;-64
2021/04/26 08:39:10;;;;;;;9.88;6.38;;;10.90;45.30;;;;;;5204264;28;20071;-63
2021/04/26 08:41:42;;;;;;;10.23;6.00;;;11.00;44.40;;;;;;5204104;28;20132;-63
2021/04/26 08:44:14;;;;;;;11.60;5.75;;;11.10;45.20;;;;;;5201851;28;20111;-64
2021/04/26 08:46:46;;;;;;;11.05;6.18;;;11.40;43.70;;;;;;5198806;28;20813;-63
2021/04/26 08:49:19;;;;;;;9.82;6.32;;;11.50;45.30;;;;;;5200085;28;20049;-64
2021/04/26 08:51:51;;;;;;;9.95;5.95;;;11.70;44.50;;;;;;5199921;28;20458;-63
2021/04/26 08:54:22;;;;;;;9.85;5.95;;;11.80;45.30;;;;;;5197937;28;20060;-63
2021/04/26 08:56:54;;;;;;;8.85;5.60;;;11.80;44.30;;;;;;5231805;28;20041;-63
2021/04/26 08:59:26;;;;;;;9.73;6.72;;;11.80;43.50;;;;;;5198766;28;20119;-64
2021/04/26 09:02:08;;;;;;;10.50;6.32;;;11.60;43.40;;;;;;5235480;28;20041;-64
2021/04/26 09:05:01;;;;;;;8.48;5.72;;;11.50;44.00;;;;;;5201710;28;20041;-64
2021/04/26 09:07:32;;;;;;;10.77;6.38;;;11.60;44.10;;;;;;5201569;28;20068;-64
2021/04/26 09:10:04;;;;;;;8.68;6.15;;;11.70;44.10;;;;;;5200664;28;20503;-64
2021/04/26 09:12:36;;;;;;;9.55;6.35;;;11.90;45.00;;;;;;5198704;28;20053;-64
2021/04/26 09:15:08;;;;;;;15.88;6.05;;;12.20;45.30;;;;;;5201242;28;20069;-64
2021/04/26 09:17:43;;;;;;;10.70;6.53;;;12.40;44.40;;;;;;5205043;28;20529;-63
2021/04/26 09:20:18;;;;;;;9.88;6.43;;;12.60;44.20;;;;;;5199864;28;20488;-64
2021/04/26 09:23:01;;;;;;;10.48;6.53;;;12.60;44.50;;;;;;5207849;28;20049;-64
2021/04/26 09:25:42;;;;;;;10.57;6.47;;;12.40;43.30;;;;;;5202943;28;20082;-64
2021/04/26 09:28:19;;;;;;;9.15;6.60;;;12.30;45.30;;;;;;5202437;28;20045;-65
2021/04/26 09:30:55;;;;;;;12.05;6.68;;;12.30;43.80;;;;;;5234661;28;20037;-63
2021/04/26 09:33:30;;;;;;;11.02;6.22;;;12.40;43.50;;;;;;5204009;28;20049;-64
2021/04/26 09:36:19;;;;;;;9.70;6.60;;;12.30;44.20;;;;;;5203954;28;20822;-64
2021/04/26 09:38:52;;;;;;;11.65;6.60;;;12.50;43.40;;;;;;5202649;28;20126;-63
2021/04/26 09:41:32;;;;;;;10.20;7.15;;;12.60;42.50;;;;;;5201526;28;20049;-64
2021/04/26 09:44:09;;;;;;;10.35;6.75;;;12.70;42.50;;;;;;5205258;28;20037;-64
2021/04/26 09:46:46;;;;;;;10.68;6.70;;;12.70;42.70;;;;;;5203206;28;20057;-64
2021/04/26 09:49:21;;;;;;;10.20;6.93;;;12.90;43.70;;;;;;5201057;28;20057;-64
2021/04/26 09:51:56;;;;;;;10.73;7.15;;;13.10;41.20;;;;;;5203334;28;20156;-64
2021/04/26 09:54:39;;;;;;;13.77;7.10;;;13.30;42.60;;;;;;5204272;28;20124;-64
2021/04/26 09:57:11;;;;;;;10.18;6.88;;;13.70;42.20;;;;;;5201189;28;20029;-65
2021/04/26 09:59:45;;;;;;;11.82;7.22;;;13.90;41.30;;;;;;5197532;28;20037;-64
2021/04/26 10:02:19;;;;;;;10.90;6.75;;;13.70;39.80;;;;;;5207769;28;20049;-64
2021/04/26 10:04:51;;;;;;;8.90;6.93;;;13.70;39.80;;;;;;5200701;28;20139;-63
2021/04/26 10:07:23;;;;;;;9.73;6.90;;;13.90;39.30;;;;;;5200215;28;20994;-63
2021/04/26 10:09:55;;;;;;;9.85;7.30;;;13.90;39.40;;;;;;5203372;28;20048;-64
2021/04/26 10:12:27;;;;;;;13.05;7.43;;;14.20;39.00;;;;;;5206221;28;20041;-63
2021/04/26 10:14:59;;;;;;;9.30;6.85;;;14.40;37.40;;;;;;5204643;28;20469;-66
2021/04/26 10:17:43;;;;;;;9.55;7.55;;;14.40;37.80;;;;;;5203100;28;20661;-64
2021/04/26 10:20:15;;;;;;;10.93;7.45;;;14.30;38.40;;;;;;5218297;28;20068;-64
2021/04/26 10:22:48;;;;;;;10.63;8.18;;;14.20;38.10;;;;;;5202955;28;20067;-63
2021/04/26 10:25:40;;;;;;;9.63;7.45;;;14.20;38.80;;;;;;5201951;28;20569;-64
2021/04/26 10:28:31;;;;;;;10.95;6.88;;;14.50;38.20;;;;;;5202290;28;20056;-64
2021/04/26 10:31:11;;;;;;;10.35;7.85;;;14.10;37.70;;;;;;5205067;28;20040;-64
2021/04/26 10:33:58;;;;;;;11.75;7.45;;;14.20;38.30;;;;;;5202835;28;20045;-64
2021/04/26 10:36:40;;;;;;;13.00;7.35;;;14.10;38.90;;;;;;5208714;28;20406;-63
2021/04/26 10:39:17;;;;;;;10.88;7.20;;;14.30;38.20;;;;;;5202992;28;20052;-63
2021/04/26 10:41:59;;;;;;;11.07;7.78;;;14.50;38.80;;;;;;5201831;28;20045;-64
2021/04/26 10:44:37;;;;;;;9.10;7.28;;;14.40;38.70;;;;;;5208847;28;20092;-63
2021/04/26 10:47:20;;;;;;;11.52;7.25;;;14.60;38.50;;;;;;5202828;28;20075;-64
2021/04/26 10:50:15;;;;;;;10.15;7.68;;;14.60;37.40;;;;;;5202249;28;20049;-64
2021/04/26 10:52:49;;;;;;;12.13;7.40;;;14.80;39.10;;;;;;5205048;28;20049;-64
2021/04/26 10:55:22;;;;;;;10.73;8.55;;;15.20;39.40;;;;;;5199561;28;20046;-64
2021/04/26 10:58:00;;;;;;;10.05;8.18;;;15.40;37.10;;;;;;5201523;28;20052;-65
2021/04/26 11:00:38;;;;;;;9.77;7.53;;;15.60;36.40;;;;;;5196926;28;20051;-64
2021/04/26 11:03:09;;;;;;;10.32;8.23;;;15.70;38.10;;;;;;5200413;28;20134;-64
2021/04/26 11:05:43;;;;;;;9.88;7.90;;;16.00;35.80;;;;;;5202689;28;20052;-64
2021/04/26 11:08:32;;;;;;;9.85;8.40;;;16.00;35.80;;;;;;5200142;28;20662;-63
2021/04/26 11:11:17;;;;;;;11.52;8.25;;;16.10;36.20;;;;;;5202381;28;20475;-64
2021/04/26 11:13:53;;;;;;;11.15;8.80;;;16.20;35.40;;;;;;5202111;28;20041;-64
2021/04/26 11:17:07;;;;;;;13.45;8.45;;;16.20;34.80;;;;;;5186466;28;20041;-64
2021/04/26 11:20:07;;;;;;;10.32;8.43;;;15.60;36.70;;;;;;5200882;28;20060;-66
2021/04/26 11:22:40;;;;;;;9.95;8.25;;;16.00;36.50;;;;;;5192442;28;20045;-64
2021/04/26 11:25:33;;;;;;;12.23;8.73;;;16.30;35.20;;;;;;5197760;28;20055;-64
2021/04/26 11:28:08;;;;;;;9.20;7.97;;;16.50;34.80;;;;;;5205299;28;20038;-65
2021/04/26 11:30:50;;;;;;;9.82;7.63;;;16.90;35.30;;;;;;5203321;28;20658;-65
2021/04/26 11:33:22;;;;;;;10.05;8.18;;;17.20;34.50;;;;;;5202690;28;20036;-64
2021/04/26 11:36:16;;;;;;;9.80;8.18;;;17.50;33.90;;;;;;5205685;28;20462;-65
2021/04/26 11:38:48;;;;;;;9.63;8.43;;;17.70;33.50;;;;;;5202168;28;20113;-64
2021/04/26 11:41:19;;;;;;;9.40;7.47;;;17.80;33.50;;;;;;5204737;28;20104;-65
2021/04/26 11:43:52;;;;;;;10.75;8.30;;;17.80;32.00;;;;;;5202615;28;20773;-65
2021/04/26 11:46:25;;;;;;;9.75;8.52;;;17.70;32.70;;;;;;5192782;28;20072;-65
2021/04/26 11:49:19;;;;;;;8.77;7.63;;;17.60;31.80;;;;;;5203468;28;20116;-64
2021/04/26 11:51:57;;;;;;;11.43;8.00;;;17.90;33.20;;;;;;5200951;28;20034;-64
2021/04/26 11:54:29;;;;;;;10.07;8.10;;;18.10;32.60;;;;;;5206308;28;20099;-65
2021/04/26 11:57:26;;;;;;;9.85;7.88;;;18.30;32.30;;;;;;5202138;28;20045;-65
2021/04/26 12:00:03;;;;;;;9.65;7.93;;;18.40;31.90;;;;;;5199956;28;20128;-64
2021/04/26 12:02:50;;;;;;;9.63;7.45;;;18.50;30.70;;;;;;5202774;28;20131;-65
2021/04/26 12:05:24;;;;;;;9.57;7.97;;;18.50;31.20;;;;;;5201904;28;20050;-65
2021/04/26 12:07:56;;;;;;;9.27;7.88;;;18.20;31.00;;;;;;5199303;28;20252;-63
2021/04/26 12:10:40;;;;;;;9.80;8.07;;;18.40;29.90;;;;;;5196056;28;20045;-64
2021/04/26 12:13:12;;;;;;;10.18;7.90;;;18.40;29.70;;;;;;5202011;28;20041;-64
2021/04/26 12:15:47;;;;;;;10.20;8.13;;;18.50;30.40;;;;;;5198665;28;20149;-64
2021/04/26 12:18:19;;;;;;;10.18;8.10;;;18.60;30.20;;;;;;5199085;28;20049;-64
2021/04/26 12:20:52;;;;;;;10.05;7.95;;;18.80;29.20;;;;;;5199103;28;20053;-64
2021/04/26 12:23:25;;;;;;;9.43;7.72;;;18.70;30.30;;;;;;5198816;28;20629;-64
2021/04/26 12:25:57;;;;;;;10.25;8.38;;;18.70;30.30;;;;;;5194678;28;20053;-64
2021/04/26 12:28:42;;;;;;;9.43;8.15;;;18.40;30.00;;;;;;5202388;28;20112;-64
2021/04/26 12:31:24;;;;;;;10.57;7.78;;;18.20;30.40;;;;;;5200253;28;20107;-63
2021/04/26 12:34:07;;;;;;;12.50;8.18;;;18.10;31.60;;;;;;5197633;28;20515;-63
2021/04/26 12:36:39;;;;;;;10.43;8.45;;;17.90;31.80;;;;;;5199100;28;20048;-63
2021/04/26 12:39:13;;;;;;;10.35;8.88;;;18.20;31.10;;;;;;5203849;28;20037;-64
2021/04/26 12:41:45;;;;;;;13.57;8.82;;;18.40;30.30;;;;;;5201993;28;20071;-64
2021/04/26 12:44:24;;;;;;;9.48;7.63;;;18.50;30.90;;;;;;5204663;28;20523;-64
2021/04/26 12:46:58;;;;;;;12.83;8.87;;;18.50;30.30;;;;;;5202349;28;20586;-65
2021/04/26 12:49:29;;;;;;;8.85;7.85;;;18.50;30.70;;;;;;5230108;28;20787;-63
2021/04/26 12:52:11;;;;;;;12.85;8.50;;;18.40;30.80;;;;;;5199881;28;20415;-64
2021/04/26 12:55:04;;;;;;;9.35;7.90;;;18.50;29.50;;;;;;5204441;28;20050;-63
2021/04/26 12:57:36;;;;;;;10.55;8.70;;;18.40;30.60;;;;;;5203150;28;20387;-63
2021/04/26 13:00:09;;;;;;;12.50;8.50;;;18.30;30.00;;;;;;5201233;28;20052;-64
2021/04/26 13:02:41;;;;;;;10.02;8.20;;;18.10;30.80;;;;;;5200778;28;20579;-63
2021/04/26 13:05:13;;;;;;;11.70;8.85;;;18.00;31.70;;;;;;5203712;28;20053;-63
2021/04/26 13:07:45;;;;;;;10.90;8.35;;;18.10;30.50;;;;;;5197470;28;20073;-63
2021/04/26 13:10:17;;;;;;;10.55;8.30;;;18.10;31.80;;;;;;5200568;28;20084;-64
2021/04/26 13:13:01;;;;;;;11.48;9.30;;;18.50;31.10;;;;;;5210944;28;20446;-65
2021/04/26 13:15:32;;;;;;;9.60;8.60;;;18.60;29.60;;;;;;5197438;28;20881;-64
2021/04/26 13:18:22;;;;;;;9.77;8.52;;;18.70;30.10;;;;;;5207494;28;20049;-63
2021/04/26 13:20:57;;;;;;;11.15;8.80;;;18.60;29.50;;;;;;5207597;28;20152;-63
2021/04/26 13:23:32;;;;;;;10.45;8.30;;;18.80;29.60;;;;;;5208068;28;20149;-64
2021/04/26 13:26:27;;;;;;;9.88;8.20;;;19.00;29.50;;;;;;5198647;28;20099;-64
2021/04/26 13:29:18;;;;;;;10.25;8.85;;;19.00;30.10;;;;;;5203706;28;20050;-65
2021/04/26 13:31:53;;;;;;;11.10;9.20;;;19.10;29.40;;;;;;5203599;28;20064;-63
2021/04/26 13:34:25;;;;;;;11.00;8.70;;;19.30;30.20;;;;;;5201443;28;20046;-63